21.5F
Current conditions from King Hill
Updated every 5 minutes
 
  Friday February 21, 2020

Observations for Westford

Westford

44° 37' 38"N, 73° 02' 29"W, Elevation 850 ft.
Eastern Time

Hourly observations for the last 72 hours

Date Time Temperature (°F) Humi-
dity

(%)
Wind
(mph)
Pressure Rain (in)
Air Dew 6 Hour 1 Hr 3 Hr 6 Hr Day
Alt
(in)
Sea
Level

(mb)
Max Min
21 19:00 21.5 7.8 25.9 21.5 55 SSE 5 G 20 30.21 1023.0 0.00
21 18:00 22.1 7.1 52 S 6 G 14 30.22 1023.4 0.00
21 17:00 23.7 7.8 50 S 7 G 20 30.23 1023.9 0.00
21 16:00 25.3 7.9 47 S 9 G 17 30.25 1024.4 0.00
21 15:00 25.3 6.4 44 SSE 8 G 16 30.29 1025.8 0.00
21 14:00 24.1 6.3 46 SSE 7 G 20 30.33 1027.0 0.00
21 13:00 23.2 6.9 23.3 -2.9 49 S 4 G 12 30.36 1028.1 0.00
21 12:00 21.6 5.8 50 SSE 5 G 10 30.40 1029.5 0.00
21 11:00 18.3 3.2 51 SSE 7 G 14 30.42 1030.2 0.00
21 10:00 11.5 -0.1 59 S 5 G 10 30.45 1031.2 0.00
21 09:00 8.5 -1.5 63 S 6 G 12 30.46 1031.6 0.00
21 08:00 1.0 -4.5 77 SSE 4 G 8 30.46 1031.4 0.00
21 07:00 -2.7 -7.9 -1.5 -5.2 78 S 1 G 4 30.46 1031.5 0.00
21 06:00 -5.1 -9.7 80 SSE 1 G 5 30.45 1031.2 0.00
21 05:00 -3.5 -8.1 80 Calm 30.45 1031.4 0.00
21 04:00 -3.1 -7.5 81 Calm 30.45 1031.2 0.00
21 03:00 -2.1 -7.8 76 Calm 30.46 1031.5 0.00
21 02:00 -3.2 -8.1 79 Calm 30.46 1031.4 0.00
21 01:00 -3.6 -9.0 4.9 -3.9 77 Calm 30.46 1031.5 0.00
21 00:00 -2.3 -8.0 76 Calm 30.47 1031.7 0.00
20 23:00 -1.2 -6.4 78 Calm 30.47 1031.9 0.00
20 22:00 -2.6 -8.8 74 Calm 30.48 1032.1 0.00
20 21:00 -0.3 -6.3 75 Calm 30.48 1032.2 0.00
20 20:00 3.1 -4.8 69 ENE 0 G 3 30.47 1032.0 0.00
20 19:00 4.8 -4.4 15.4 4.8 65 NNW 0 G 1 30.46 1031.6 0.00
20 18:00 6.3 -4.6 60 NNW 1 G 3 30.45 1031.1 0.00
20 17:00 10.6 -2.4 55 NW 0 G 8 30.43 1030.4 0.00
20 16:00 13.4 -1.4 51 NW 4 G 12 30.41 1029.7 0.00
20 15:00 13.8 0.6 55 NNW 2 G 11 30.40 1029.5 0.00
20 14:00 14.9 2.8 58 NW 4 G 12 30.40 1029.6 0.00
20 13:00 13.0 2.4 14.3 1.7 62 W 3 G 9 30.42 1030.0 0.00
20 12:00 14.2 3.2 61 NNW 2 G 7 30.43 1030.5 0.00
20 11:00 10.5 2.3 69 WNW 5 G 11 30.45 1031.3 0.00
20 10:00 9.8 2.3 71 NNW 3 G 8 30.44 1031.0 0.00
20 09:00 9.0 2.7 75 NW 1 G 8 30.43 1030.4 0.00
20 08:00 3.9 0.4 85 Calm 30.40 1029.6 0.00
20 07:00 1.7 -1.5 8.6 1.3 86 Calm 30.37 1028.6 0.00
20 06:00 3.6 -1.5 79 Calm 30.36 1028.2 0.00
20 05:00 4.6 -1.0 77 Calm 30.35 1027.9 0.00
20 04:00 5.9 -0.6 74 Calm 30.35 1027.7 0.00
20 03:00 7.1 -0.3 71 Calm 30.34 1027.5 0.00
20 02:00 7.9 -0.5 68 Calm 30.35 1027.7 0.00
20 01:00 8.5 -0.5 14.7 8.5 66 Calm 30.34 1027.5 0.00
20 00:00 8.9 -0.5 65 Calm 30.34 1027.4 0.00
19 23:00 9.5 -0.2 64 Calm 30.34 1027.5 0.00
19 22:00 12.3 0.3 58 W 1 G 8 30.33 1027.2 0.00
19 21:00 12.9 -0.2 55 W 4 G 10 30.32 1026.9 0.00
19 20:00 13.0 -0.5 54 NE 0 G 2 30.31 1026.3 0.00
19 19:00 14.7 0.2 26.5 14.6 52 WNW 3 G 11 30.26 1024.8 0.00
19 18:00 17.3 3.1 53 W 6 G 19 30.24 1023.9 0.00
19 17:00 21.2 5.9 51 W 3 G 11 30.22 1023.3 0.00
19 16:00 24.9 6.5 45 W 3 G 15 30.20 1022.8 0.00
19 15:00 25.1 1.9 36 W 7 G 17 30.19 1022.2 0.00
19 14:00 25.8 1.9 35 WNW 8 G 18 30.17 1021.7 0.00
19 13:00 25.5 4.5 29.8 24.4 40 WSW 12 G 19 30.17 1021.5 0.00
19 12:00 26.4 10.3 50 W 13 G 26 30.16 1021.5 0.00
19 11:00 25.3 14.5 63 W 9 G 22 30.15 1021.1 0.00
19 10:00 28.4 9.3 44 WSW 12 G 28 30.09 1018.9 0.00
19 09:00 28.8 9.6 44 SW 13 G 25 30.05 1017.7 0.00
19 08:00 28.4 16.7 61 W 8 G 20 30.02 1016.7 0.00
19 07:00 29.7 19.7 35.1 29.7 66 SW 10 G 22 29.99 1015.6 0.00
19 06:00 31.1 19.2 61 SW 8 G 21 29.97 1015.0 0.00
19 05:00 32.0 22.3 67 SW 8 G 14 29.95 1014.2 0.00
19 04:00 32.5 22.8 67 SW 7 G 15 29.94 1013.9 0.00
19 03:00 33.4 24.0 68 WSW 4 G 17 29.93 1013.7 0.00
19 02:00 34.0 24.9 69 SW 6 G 14 29.93 1013.4 0.00
19 01:00 35.1 26.0 36.3 32.8 69 WSW 7 G 17 29.92 1013.1 0.00
19 00:00 36.1 28.0 72 SW 10 G 21 29.90 1012.5 0.00
18 23:00 34.6 32.2 91 SSW 5 G 9 29.89 1012.2 0.00
18 22:00 34.8 33.0 93 SW 3 G 18 29.89 1012.2 0.00
18 21:00 35.1 32.5 90 S 6 G 20 29.87 1011.6 0.00
18 20:00 35.2 32.3 89 SSE 7 G 17 29.87 1011.6 0.00

Data generated by WxSolution Version 1.9.1.7, Build 2018.11.24.


 
 
Current Radar Loop:

Copyright © WestfordWeather.net 2007-2020. All rights reserved.